createdAt,value
2023-03-17T00:00:20.055Z,13.02
2023-03-17T00:02:49.597Z,9.05
2023-03-17T00:05:19.542Z,10.73
2023-03-17T00:07:47.570Z,12.25
2023-03-17T00:10:17.881Z,9.93
2023-03-17T00:12:45.952Z,13.85
2023-03-17T00:15:15.047Z,12.05
2023-03-17T00:17:42.539Z,13.80
2023-03-17T00:20:21.796Z,14.20
2023-03-17T00:22:49.223Z,9.00
2023-03-17T00:25:23.337Z,14.23
2023-03-17T00:27:51.347Z,12.80
2023-03-17T00:30:18.734Z,11.07
2023-03-17T00:32:46.724Z,13.73
2023-03-17T00:35:19.148Z,13.20
2023-03-17T00:37:46.984Z,16.00
2023-03-17T00:40:19.178Z,17.90
2023-03-17T00:42:46.393Z,15.80
2023-03-17T00:45:14.044Z,16.42
2023-03-17T00:47:41.066Z,17.05
2023-03-17T00:50:19.312Z,16.27
2023-03-17T00:52:46.416Z,18.02
2023-03-17T00:55:14.442Z,18.30
2023-03-17T00:57:42.498Z,17.13
2023-03-17T01:00:28.212Z,18.58
2023-03-17T01:02:57.331Z,21.02
2023-03-17T01:05:25.842Z,20.58
2023-03-17T01:07:59.016Z,18.00
2023-03-17T01:10:28.563Z,16.80
2023-03-17T01:12:58.168Z,21.33
2023-03-17T01:15:29.042Z,18.80
2023-03-17T01:17:57.315Z,14.77
2023-03-17T01:20:42.948Z,17.40
2023-03-17T01:23:12.337Z,15.35
2023-03-17T01:25:41.597Z,15.57
2023-03-17T01:28:14.327Z,15.73
2023-03-17T01:30:41.727Z,13.05
2023-03-17T01:33:10.884Z,13.25
2023-03-17T01:35:38.650Z,16.08
2023-03-17T01:38:06.180Z,15.32
2023-03-17T01:40:36.280Z,10.70
2023-03-17T01:43:09.339Z,13.18
2023-03-17T01:46:16.523Z,18.52
2023-03-17T01:48:58.737Z,18.88
2023-03-17T01:51:33.399Z,13.57
2023-03-17T01:54:03.699Z,13.48
2023-03-17T01:56:31.569Z,14.30
2023-03-17T01:59:01.741Z,12.05
2023-03-17T02:01:33.858Z,10.93
2023-03-17T02:04:01.307Z,11.68
2023-03-17T02:06:28.480Z,13.32
2023-03-17T02:08:55.692Z,14.82
2023-03-17T02:11:22.765Z,12.05
2023-03-17T02:13:50.067Z,11.07
2023-03-17T02:16:17.818Z,15.23
2023-03-17T02:18:45.127Z,14.23
2023-03-17T02:21:31.435Z,15.57
2023-03-17T02:24:01.728Z,11.32
2023-03-17T02:26:32.072Z,16.67
2023-03-17T02:28:59.296Z,12.23
2023-03-17T02:31:27.602Z,12.10
2023-03-17T02:33:54.819Z,14.02
2023-03-17T02:36:22.278Z,13.15
2023-03-17T02:38:50.093Z,13.95
2023-03-17T02:41:17.587Z,14.25
2023-03-17T02:43:44.556Z,19.45
2023-03-17T02:46:11.493Z,23.25
2023-03-17T02:48:39.686Z,14.93
2023-03-17T02:51:06.838Z,17.88
2023-03-17T02:53:33.792Z,17.52
2023-03-17T02:56:00.753Z,14.50
2023-03-17T02:58:27.905Z,16.65
2023-03-17T03:00:54.822Z,18.95
2023-03-17T03:03:21.885Z,17.77
2023-03-17T03:05:48.835Z,14.35
2023-03-17T03:08:16.552Z,23.30
2023-03-17T03:10:43.658Z,16.33
2023-03-17T03:13:11.649Z,20.35
2023-03-17T03:15:42.030Z,19.95
2023-03-17T03:18:09.052Z,16.95
2023-03-17T03:20:36.642Z,16.35
2023-03-17T03:23:04.064Z,18.25
2023-03-17T03:25:31.486Z,17.65
2023-03-17T03:27:58.410Z,13.65
2023-03-17T03:30:25.294Z,20.17
2023-03-17T03:32:52.274Z,15.20
2023-03-17T03:35:19.249Z,20.27
2023-03-17T03:37:46.257Z,25.63
2023-03-17T03:40:13.527Z,14.93
2023-03-17T03:42:40.992Z,16.77
2023-03-17T03:45:08.524Z,19.13
2023-03-17T03:47:35.862Z,15.77
2023-03-17T03:50:02.916Z,18.35
2023-03-17T03:52:29.802Z,21.48
2023-03-17T03:54:56.741Z,13.35
2023-03-17T03:57:23.618Z,17.23
2023-03-17T03:59:50.516Z,19.52
2023-03-17T04:02:17.506Z,15.85
2023-03-17T04:04:44.902Z,11.38
2023-03-17T04:07:12.160Z,15.45
2023-03-17T04:09:39.424Z,21.23
2023-03-17T04:12:07.080Z,17.17
2023-03-17T04:14:34.024Z,15.68
2023-03-17T04:17:01.737Z,15.68
2023-03-17T04:19:28.936Z,14.05
2023-03-17T04:21:56.289Z,15.63
2023-03-17T04:24:23.229Z,16.83
2023-03-17T04:26:50.150Z,15.55
2023-03-17T04:29:17.071Z,14.85
2023-03-17T04:31:44.101Z,14.13
2023-03-17T04:34:15.849Z,14.43
2023-03-17T04:36:44.174Z,23.15
2023-03-17T04:39:11.780Z,21.77
2023-03-17T04:41:40.077Z,22.77
2023-03-17T04:44:08.020Z,20.90
2023-03-17T04:46:36.153Z,31.35
2023-03-17T04:49:03.046Z,18.13
2023-03-17T04:51:30.564Z,17.92
2023-03-17T04:53:57.495Z,19.20
2023-03-17T04:56:24.599Z,21.60
2023-03-17T04:58:51.491Z,19.05
2023-03-17T05:01:18.534Z,17.30
2023-03-17T05:03:45.566Z,20.83
2023-03-17T05:06:12.551Z,24.48
2023-03-17T05:08:39.709Z,24.15
2023-03-17T05:11:06.684Z,25.52
2023-03-17T05:13:33.569Z,20.63
2023-03-17T05:16:01.581Z,20.60
2023-03-17T05:18:28.698Z,21.10
2023-03-17T05:20:55.703Z,23.00
2023-03-17T05:23:23.110Z,30.85
2023-03-17T05:25:50.337Z,27.48
2023-03-17T05:28:18.417Z,26.48
2023-03-17T05:30:46.094Z,26.77
2023-03-17T05:33:13.097Z,33.38
2023-03-17T05:35:40.853Z,26.80
2023-03-17T05:38:08.803Z,25.35
2023-03-17T05:40:37.185Z,27.65
2023-03-17T05:43:04.647Z,27.33
2023-03-17T05:45:31.778Z,21.02
2023-03-17T05:47:58.979Z,31.15
2023-03-17T05:50:27.156Z,30.00
2023-03-17T05:52:54.406Z,24.27
2023-03-17T05:55:22.597Z,25.40
2023-03-17T05:57:49.660Z,21.35
2023-03-17T06:00:17.026Z,26.98
2023-03-17T06:02:44.043Z,26.23
2023-03-17T06:05:11.666Z,25.17
2023-03-17T06:07:51.707Z,27.05
2023-03-17T06:10:22.054Z,36.65
2023-03-17T06:12:49.030Z,30.42
2023-03-17T06:15:17.154Z,32.70
2023-03-17T06:17:44.594Z,31.88
2023-03-17T06:20:12.626Z,29.58
2023-03-17T06:22:51.652Z,34.13
2023-03-17T06:25:27.190Z,31.33
2023-03-17T06:27:56.197Z,34.28
2023-03-17T06:30:23.228Z,32.83
2023-03-17T06:32:50.412Z,36.28
2023-03-17T06:35:18.189Z,35.40
2023-03-17T06:37:45.275Z,32.83
2023-03-17T06:40:13.022Z,34.00
2023-03-17T06:42:39.938Z,39.25
2023-03-17T06:45:09.399Z,34.53
2023-03-17T06:47:37.443Z,33.20
2023-03-17T06:50:05.038Z,36.90
2023-03-17T06:52:32.336Z,31.25
2023-03-17T06:54:59.229Z,29.30
2023-03-17T06:57:26.362Z,33.35
2023-03-17T06:59:53.408Z,26.65
2023-03-17T07:02:20.339Z,33.78
2023-03-17T07:04:47.765Z,30.27
2023-03-17T07:07:14.941Z,31.90
2023-03-17T07:09:42.054Z,31.55
2023-03-17T07:12:10.432Z,33.65
2023-03-17T07:14:37.618Z,29.92
2023-03-17T07:17:06.230Z,34.13
2023-03-17T07:19:33.679Z,33.78
2023-03-17T07:22:01.133Z,34.33
2023-03-17T07:24:28.262Z,29.35
2023-03-17T07:26:55.448Z,34.40
2023-03-17T07:29:22.876Z,30.08
2023-03-17T07:31:50.171Z,31.35
2023-03-17T07:34:17.885Z,27.77
2023-03-17T07:36:44.942Z,34.35
2023-03-17T07:39:12.842Z,28.05
2023-03-17T07:41:40.261Z,31.33
2023-03-17T07:44:07.336Z,28.92
2023-03-17T07:46:34.262Z,29.80
2023-03-17T07:49:01.929Z,30.75
2023-03-17T07:51:28.972Z,29.80
2023-03-17T07:54:03.630Z,29.63
2023-03-17T07:56:32.108Z,27.65
2023-03-17T07:59:00.060Z,27.58
2023-03-17T08:01:27.968Z,30.38
2023-03-17T08:03:56.641Z,32.35
2023-03-17T08:06:27.447Z,31.38
2023-03-17T08:08:55.206Z,32.63
2023-03-17T08:11:23.512Z,30.25
2023-03-17T08:13:51.119Z,30.98
2023-03-17T08:16:18.106Z,31.42
2023-03-17T08:18:45.238Z,27.20
2023-03-17T08:21:14.093Z,31.83
2023-03-17T08:23:43.382Z,28.83
2023-03-17T08:26:10.400Z,29.83
2023-03-17T08:28:37.635Z,32.83
2023-03-17T08:31:13.768Z,32.63
2023-03-17T08:33:42.582Z,31.27
2023-03-17T08:36:11.468Z,25.25
2023-03-17T08:38:40.427Z,28.98
2023-03-17T08:41:10.435Z,28.33
2023-03-17T08:43:38.368Z,28.88
2023-03-17T08:46:09.930Z,28.35
2023-03-17T08:48:37.522Z,25.70
2023-03-17T08:51:05.582Z,27.52
2023-03-17T08:53:35.186Z,24.02
2023-03-17T08:56:04.758Z,28.30
2023-03-17T08:58:32.032Z,22.70
2023-03-17T09:01:00.636Z,24.83
2023-03-17T09:03:29.113Z,23.55
2023-03-17T09:05:57.135Z,21.52
2023-03-17T09:12:07.208Z,23.75
2023-03-17T09:14:42.944Z,21.80
2023-03-17T09:17:11.337Z,20.27
2023-03-17T09:19:38.920Z,20.40
2023-03-17T09:22:06.048Z,23.27
2023-03-17T09:24:33.344Z,24.17
2023-03-17T09:27:01.461Z,22.52
2023-03-17T09:29:28.924Z,26.60
2023-03-17T09:31:57.129Z,20.65
2023-03-17T09:34:25.288Z,19.20
2023-03-17T09:36:54.378Z,21.05
2023-03-17T09:39:24.548Z,22.70
2023-03-17T09:41:58.967Z,19.38
2023-03-17T09:47:02.601Z,21.85
2023-03-17T09:49:45.667Z,21.92
2023-03-17T09:52:15.841Z,28.40
2023-03-17T09:54:44.014Z,21.77
2023-03-17T09:57:20.034Z,21.40
2023-03-17T09:59:51.166Z,22.50
2023-03-17T10:02:30.366Z,18.73
2023-03-17T10:04:58.236Z,21.30
2023-03-17T10:07:49.795Z,21.75
2023-03-17T10:10:37.058Z,21.70
2023-03-17T10:13:22.183Z,22.40
2023-03-17T10:16:12.339Z,25.17
2023-03-17T10:18:49.118Z,20.08
2023-03-17T10:21:24.417Z,20.45
2023-03-17T10:23:52.386Z,19.13
2023-03-17T10:26:25.327Z,22.88
2023-03-17T10:28:53.724Z,18.63
2023-03-17T10:31:28.816Z,17.98
2023-03-17T10:33:59.123Z,21.65
2023-03-17T10:37:01.365Z,17.70
2023-03-17T10:39:32.457Z,17.38
2023-03-17T10:42:10.778Z,16.77
2023-03-17T10:44:40.676Z,21.42
2023-03-17T10:47:39.833Z,17.90
2023-03-17T10:50:23.736Z,19.83
2023-03-17T10:53:09.481Z,17.47
2023-03-17T10:55:39.371Z,17.50
2023-03-17T10:58:15.384Z,20.13
2023-03-17T11:01:00.133Z,19.95
2023-03-17T11:06:10.262Z,14.13
2023-03-17T11:12:34.931Z,17.10
2023-03-17T11:21:30.182Z,15.13
2023-03-17T11:24:00.187Z,15.20
2023-03-17T11:26:58.244Z,18.63
2023-03-17T11:29:53.313Z,15.48
2023-03-17T11:32:27.616Z,11.13
2023-03-17T11:35:42.141Z,15.40
2023-03-17T11:38:30.197Z,17.02
2023-03-17T11:41:05.143Z,14.02
2023-03-17T11:43:47.658Z,14.40
2023-03-17T11:46:34.424Z,15.30
2023-03-17T11:49:20.595Z,13.02
2023-03-17T11:51:59.932Z,14.05
2023-03-17T11:54:38.726Z,15.65
2023-03-17T11:57:15.487Z,12.65
2023-03-17T11:59:47.458Z,15.57
2023-03-17T12:02:28.778Z,14.07
2023-03-17T12:05:02.611Z,15.40
2023-03-17T12:07:44.922Z,12.85
2023-03-17T12:10:37.979Z,17.73
2023-03-17T12:13:14.215Z,18.92
2023-03-17T12:16:10.137Z,17.70
2023-03-17T12:19:01.522Z,15.52
2023-03-17T12:21:47.650Z,16.27
2023-03-17T12:24:21.045Z,17.75
2023-03-17T12:26:55.953Z,11.65
2023-03-17T12:29:43.310Z,15.30
2023-03-17T12:32:24.419Z,14.50
2023-03-17T12:34:57.613Z,13.30
2023-03-17T12:37:27.756Z,17.95
2023-03-17T12:40:00.865Z,18.05
2023-03-17T12:42:52.385Z,17.38
2023-03-17T12:45:37.529Z,21.10
2023-03-17T12:48:37.231Z,18.48
2023-03-17T12:51:23.076Z,18.08
2023-03-17T12:53:51.964Z,18.33
2023-03-17T12:56:24.715Z,17.45
2023-03-17T12:58:54.757Z,15.73
2023-03-17T13:01:37.419Z,18.23
2023-03-17T13:04:06.686Z,20.15
2023-03-17T13:06:46.334Z,24.17
2023-03-17T13:09:31.843Z,19.70
2023-03-17T13:12:00.590Z,16.52
2023-03-17T13:14:27.482Z,21.33
2023-03-17T13:17:27.247Z,20.48
2023-03-17T13:19:57.255Z,18.10
2023-03-17T13:22:34.513Z,21.63
2023-03-17T13:25:23.621Z,19.58
2023-03-17T13:27:50.561Z,17.15
2023-03-17T13:30:24.432Z,18.55
2023-03-17T13:33:20.025Z,18.67
2023-03-17T13:36:05.567Z,15.43
2023-03-17T13:38:35.549Z,20.52
2023-03-17T13:41:35.878Z,15.82
2023-03-17T13:44:09.007Z,17.55
2023-03-17T13:46:39.896Z,18.38
2023-03-17T13:49:19.507Z,19.38
2023-03-17T13:52:04.471Z,21.35
2023-03-17T13:54:40.784Z,20.45
2023-03-17T13:57:28.599Z,20.88
2023-03-17T14:00:16.660Z,18.15
2023-03-17T14:02:45.339Z,14.45
2023-03-17T14:05:27.294Z,15.18
2023-03-17T14:08:04.030Z,17.05
2023-03-17T14:10:34.142Z,19.05
2023-03-17T14:13:21.833Z,16.98
2023-03-17T14:16:05.633Z,16.80
2023-03-17T14:18:43.125Z,14.93
2023-03-17T14:21:24.734Z,16.33
2023-03-17T14:23:56.044Z,16.85
2023-03-17T14:26:28.887Z,17.25
2023-03-17T14:28:59.048Z,13.93
2023-03-17T14:31:28.780Z,16.52
2023-03-17T14:33:58.716Z,16.98
2023-03-17T14:36:27.735Z,16.35
2023-03-17T14:38:56.801Z,14.57
2023-03-17T14:41:28.427Z,15.40
2023-03-17T14:44:00.418Z,19.45
2023-03-17T14:46:35.157Z,17.13
2023-03-17T14:49:18.975Z,16.00
2023-03-17T14:51:49.957Z,19.47
2023-03-17T14:54:22.627Z,14.63
2023-03-17T14:57:02.045Z,18.23
2023-03-17T14:59:33.463Z,17.98
2023-03-17T15:02:03.949Z,12.63
2023-03-17T15:04:34.267Z,14.35
2023-03-17T15:07:04.653Z,16.75
2023-03-17T15:09:36.578Z,13.43
2023-03-17T15:12:07.325Z,16.55
2023-03-17T15:14:38.940Z,16.90
2023-03-17T15:17:16.139Z,14.55
2023-03-17T15:19:51.472Z,18.13
2023-03-17T15:22:21.392Z,14.32
2023-03-17T15:24:59.511Z,15.45
2023-03-17T15:27:27.369Z,13.77
2023-03-17T15:29:54.420Z,16.60
2023-03-17T15:32:26.415Z,15.90
2023-03-17T15:34:57.168Z,15.00
2023-03-17T15:37:28.580Z,18.52
2023-03-17T15:39:56.709Z,14.75
2023-03-17T15:42:27.987Z,18.98
2023-03-17T15:44:55.614Z,16.27
2023-03-17T15:47:25.746Z,16.92
2023-03-17T15:49:55.926Z,14.13
2023-03-17T15:52:25.892Z,14.20
2023-03-17T15:54:55.301Z,13.98
2023-03-17T15:57:22.831Z,16.83
2023-03-17T15:59:50.176Z,14.02
2023-03-17T16:02:28.108Z,17.00
2023-03-17T16:04:55.469Z,16.55
2023-03-17T16:07:22.698Z,13.70
2023-03-17T16:09:49.838Z,14.07
2023-03-17T16:12:16.849Z,12.95
2023-03-17T16:14:43.942Z,13.45
2023-03-17T16:17:26.954Z,14.00
2023-03-17T16:19:54.378Z,13.30
2023-03-17T16:22:43.134Z,16.15
2023-03-17T16:25:18.953Z,21.02
2023-03-17T16:27:46.737Z,16.75
2023-03-17T16:30:23.067Z,13.55
2023-03-17T16:32:50.522Z,13.65
2023-03-17T16:35:20.377Z,15.98
2023-03-17T16:37:48.529Z,18.45
2023-03-17T16:40:25.970Z,17.55
2023-03-17T16:42:53.587Z,17.83
2023-03-17T16:45:30.026Z,15.50
2023-03-17T16:47:57.645Z,14.10
2023-03-17T16:50:27.806Z,15.00
2023-03-17T16:52:54.985Z,15.73
2023-03-17T16:55:23.128Z,15.25
2023-03-17T16:57:52.304Z,17.13
2023-03-17T17:00:30.659Z,16.85
2023-03-17T17:02:58.771Z,16.92
2023-03-17T17:05:29.517Z,19.02
2023-03-17T17:07:57.962Z,23.33
2023-03-17T17:10:27.257Z,15.93
2023-03-17T17:12:54.412Z,17.27
2023-03-17T17:15:22.853Z,17.67
2023-03-17T17:17:56.794Z,15.60
2023-03-17T17:20:39.420Z,21.50
2023-03-17T17:23:11.079Z,17.85
2023-03-17T17:25:38.125Z,16.92
2023-03-17T17:28:05.668Z,17.48
2023-03-17T17:30:33.579Z,23.63
2023-03-17T17:33:01.774Z,15.13
2023-03-17T17:35:32.589Z,17.83
2023-03-17T17:38:01.095Z,15.98
2023-03-17T17:40:29.400Z,16.48
2023-03-17T17:42:57.849Z,22.25
2023-03-17T17:45:25.294Z,16.02
2023-03-17T17:47:52.242Z,17.65
2023-03-17T17:50:30.101Z,16.55
2023-03-17T17:53:02.837Z,17.33
2023-03-17T17:55:29.939Z,16.23
2023-03-17T17:57:56.972Z,18.70
2023-03-17T18:00:25.806Z,15.38
2023-03-17T18:02:52.804Z,19.17
2023-03-17T18:05:19.789Z,15.73
2023-03-17T18:07:46.816Z,18.38
2023-03-17T18:13:55.248Z,17.60
2023-03-17T18:16:22.459Z,21.10
2023-03-17T18:18:49.417Z,22.08
2023-03-17T18:21:16.807Z,17.75
2023-03-17T18:23:47.451Z,20.85
2023-03-17T18:26:17.272Z,23.33
2023-03-17T18:28:44.811Z,18.70
2023-03-17T18:31:34.740Z,16.25
2023-03-17T18:34:36.033Z,17.63
2023-03-17T18:37:03.225Z,18.42
2023-03-17T18:39:30.788Z,22.90
2023-03-17T18:41:57.803Z,18.70
2023-03-17T18:44:25.133Z,17.38
2023-03-17T18:46:52.491Z,19.77
2023-03-17T18:49:19.538Z,15.88
2023-03-17T18:51:46.719Z,18.17
2023-03-17T18:54:13.907Z,20.90
2023-03-17T18:56:41.157Z,15.57
2023-03-17T18:59:08.066Z,16.90
2023-03-17T19:01:35.108Z,21.58
2023-03-17T19:04:04.028Z,19.75
2023-03-17T19:06:31.331Z,22.67
2023-03-17T19:08:58.917Z,18.77
2023-03-17T19:11:26.220Z,20.20
2023-03-17T19:13:53.204Z,21.90
2023-03-17T19:16:20.229Z,20.50
2023-03-17T19:18:47.310Z,25.33
2023-03-17T19:21:14.424Z,21.42
2023-03-17T19:23:41.709Z,19.38
2023-03-17T19:26:08.971Z,18.73
2023-03-17T19:28:36.022Z,21.73
2023-03-17T19:31:03.489Z,19.67
2023-03-17T19:37:11.823Z,19.52
2023-03-17T19:39:38.799Z,19.17
2023-03-17T19:42:06.070Z,21.38
2023-03-17T19:44:33.833Z,18.27
2023-03-17T19:47:05.146Z,19.30
2023-03-17T19:49:32.446Z,19.00
2023-03-17T19:51:59.439Z,20.83
2023-03-17T19:54:26.405Z,20.17
2023-03-17T19:56:53.662Z,20.90
2023-03-17T19:59:20.705Z,23.88
2023-03-17T20:01:49.261Z,19.63
2023-03-17T20:04:21.085Z,20.65
2023-03-17T20:06:48.184Z,19.45
2023-03-17T20:09:15.442Z,20.42
2023-03-17T20:11:42.560Z,20.27
2023-03-17T20:14:09.638Z,21.13
2023-03-17T20:16:37.133Z,19.42
2023-03-17T20:19:04.233Z,22.23
2023-03-17T20:21:31.486Z,22.70
2023-03-17T20:23:58.692Z,21.98
2023-03-17T20:26:25.807Z,20.13
2023-03-17T20:28:53.970Z,19.63
2023-03-17T20:31:21.014Z,20.80
2023-03-17T20:33:48.378Z,19.83
2023-03-17T20:36:15.532Z,18.35
2023-03-17T20:38:43.948Z,20.85
2023-03-17T20:41:17.278Z,25.70
2023-03-17T20:43:45.628Z,19.75
2023-03-17T20:46:16.912Z,21.80
2023-03-17T20:48:44.552Z,21.10
2023-03-17T20:51:16.450Z,24.42
2023-03-17T20:53:44.844Z,22.05
2023-03-17T20:56:23.707Z,21.15
2023-03-17T20:58:53.284Z,20.08
2023-03-17T21:01:21.818Z,16.73
2023-03-17T21:03:49.936Z,20.45
2023-03-17T21:06:18.468Z,18.10
2023-03-17T21:08:46.471Z,20.27
2023-03-17T21:11:21.051Z,20.15
2023-03-17T21:16:26.559Z,20.77
2023-03-17T21:18:54.082Z,21.67
2023-03-17T21:21:22.333Z,21.55
2023-03-17T21:23:49.741Z,19.73
2023-03-17T21:26:16.828Z,18.08
2023-03-17T21:28:44.226Z,19.10
2023-03-17T21:31:12.593Z,18.80
2023-03-17T21:33:39.823Z,20.05
2023-03-17T21:36:07.502Z,26.42
2023-03-17T21:38:34.842Z,25.13
2023-03-17T21:41:21.500Z,23.48
2023-03-17T21:43:48.857Z,23.88
2023-03-17T21:46:15.860Z,22.55
2023-03-17T21:48:44.154Z,21.70
2023-03-17T21:51:11.728Z,21.77
2023-03-17T21:53:39.349Z,22.38
2023-03-17T21:56:06.953Z,23.88
2023-03-17T21:58:34.138Z,19.65
2023-03-17T22:01:01.563Z,22.25
2023-03-17T22:03:28.644Z,22.45
2023-03-17T22:05:56.774Z,23.55
2023-03-17T22:08:23.884Z,24.30
2023-03-17T22:10:51.457Z,21.15
2023-03-17T22:13:18.566Z,19.90
2023-03-17T22:15:45.555Z,27.27
2023-03-17T22:18:12.585Z,17.45
2023-03-17T22:20:39.757Z,21.05
2023-03-17T22:23:06.797Z,20.48
2023-03-17T22:25:33.784Z,19.63
2023-03-17T22:31:47.619Z,22.33
2023-03-17T22:34:14.753Z,19.17
2023-03-17T22:36:41.817Z,26.48
2023-03-17T22:39:10.645Z,20.90
2023-03-17T22:41:38.711Z,23.00
2023-03-17T22:44:08.399Z,22.30
2023-03-17T22:46:37.364Z,18.30
2023-03-17T22:49:06.048Z,18.70
2023-03-17T22:51:33.143Z,18.40
2023-03-17T22:54:00.299Z,21.20
2023-03-17T22:56:27.406Z,18.08
2023-03-17T22:58:55.110Z,19.70
2023-03-17T23:01:25.846Z,22.90
2023-03-17T23:03:54.288Z,22.73
2023-03-17T23:06:22.028Z,21.00
2023-03-17T23:08:49.231Z,17.33
2023-03-17T23:11:21.357Z,21.38
2023-03-17T23:13:49.133Z,19.70
2023-03-17T23:16:16.561Z,19.80
2023-03-17T23:18:46.751Z,22.63
2023-03-17T23:21:32.847Z,21.85
2023-03-17T23:24:00.984Z,27.25
2023-03-17T23:26:28.541Z,23.05
2023-03-17T23:28:55.994Z,19.17
2023-03-17T23:31:23.179Z,24.33
2023-03-17T23:33:50.747Z,19.75
2023-03-17T23:36:18.418Z,21.55
2023-03-17T23:38:46.094Z,22.20
2023-03-17T23:41:14.515Z,20.88
2023-03-17T23:43:42.326Z,19.17
2023-03-17T23:46:09.402Z,19.83
2023-03-17T23:48:36.746Z,19.85
2023-03-17T23:51:04.114Z,23.45
2023-03-17T23:53:31.562Z,20.30
2023-03-17T23:55:59.333Z,20.40
2023-03-17T23:58:27.593Z,21.60
